Date,TemperatureHighF,TemperatureAvgF,TemperatureLowF,DewpointHighF,DewpointAvgF,DewpointLowF,HumidityHigh,HumidityAvg,HumidityLow,PressureMaxIn,PressureMinIn,WindSpeedMaxMPH,WindSpeedAvgMPH,GustSpeedMaxMPH,PrecipitationSumIn
2013-1-1,28.5,18.0,9.6,15.3,10.2,4.4,89,72,51,30.38,30.22,4,1,8,0.00
2013-1-2,33.0,23.2,12.3,11.3,6.5,0.8,67,50,27,30.44,30.28,5,1,7,0.00
2013-1-3,37.5,24.1,14.7,6.7,1.9,-4.4,55,39,22,30.47,30.30,3,1,6,0.00
2013-1-4,47.0,31.2,20.2,14.2,8.9,3.2,60,41,19,30.34,30.08,3,1,5,0.00
2013-1-5,40.6,28.7,18.1,15.1,9.5,4.8,65,45,29,30.37,30.11,7,1,8,0.00
2013-1-6,44.3,30.4,16.6,11.4,5.3,-4.3,58,35,17,30.35,29.99,4,1,4,0.00
2013-1-7,52.6,37.8,27.1,13.9,8.8,-1.0,47,32,11,30.02,29.76,4,1,6,0.00
2013-1-8,50.5,40.4,29.9,18.4,14.4,6.8,51,35,26,30.17,29.75,11,3,17,0.00
2013-1-9,55.8,38.5,23.7,19.2,15.8,11.3,65,42,20,30.27,29.97,4,1,6,0.00
2013-1-10,33.9,28.4,25.0,12.4,11.7,10.6,55,49,40,29.97,29.89,1,0,1,0.00
2013-1-11,37.2,20.6,8.7,23.0,11.5,-6.4,88,74,16,29.86,29.27,12,4,34,0.00
2013-1-12,14.4,8.1,3.7,7.2,3.6,-0.3,87,81,67,30.31,29.86,4,1,11,0.00
2013-1-13,14.8,8.2,0.1,6.4,2.2,-4.0,85,76,65,30.43,30.31,3,1,8,0.00
2013-1-14,16.5,7.1,-1.1,5.7,-0.8,-5.9,82,70,57,30.48,30.35,4,1,9,0.00
2013-1-15,31.7,18.1,-2.3,14.3,4.1,-7.5,79,56,36,30.44,30.34,4,0,7,0.00
2013-1-16,53.7,36.4,24.0,22.5,18.1,13.4,67,50,27,30.37,30.20,3,1,8,0.00
2013-1-17,50.1,35.8,25.4,21.8,16.5,11.5,65,47,27,30.44,30.22,5,1,8,0.00
2013-1-18,59.5,43.2,26.2,11.4,4.6,-0.9,53,23,9,30.22,29.93,15,3,29,0.00
2013-1-19,59.2,44.6,30.1,10.1,3.7,-2.6,34,19,10,30.12,29.99,8,2,15,0.00
2013-1-20,49.0,33.3,19.8,12.8,9.6,6.1,65,39,20,30.26,30.06,6,1,8,0.00
2013-1-21,55.9,37.0,15.3,18.0,8.4,-5.3,76,39,10,30.27,30.03,7,2,14,0.00
2013-1-22,60.2,46.5,35.2,13.3,0.2,-9.5,27,15,7,30.03,29.90,10,2,12,0.00
2013-1-23,63.9,51.9,35.3,9.8,-6.9,-26.6,24,10,3,30.06,29.97,7,2,12,0.00
2013-1-24,62.2,44.4,30.5,23.1,9.3,-6.3,49,27,6,30.03,29.82,6,1,7,0.00
2013-1-25,53.8,40.9,30.6,27.6,24.2,20.4,66,52,36,30.06,29.96,4,1,7,0.00
2013-1-26,54.6,41.0,29.7,36.0,27.5,22.0,83,61,35,30.00,29.66,4,1,5,0.00
2013-1-27,59.5,44.2,34.6,35.9,28.0,19.7,87,58,22,29.67,29.58,9,2,13,0.00
2013-1-28,48.9,36.1,25.4,30.3,23.5,17.4,91,63,38,29.69,29.44,4,2,6,0.00
2013-1-29,31.4,24.4,12.9,22.9,14.2,1.9,91,67,30,30.04,29.69,4,1,6,0.00
2013-1-30,42.2,25.6,8.2,16.0,9.3,0.7,76,52,31,30.05,29.92,12,2,21,0.04
2013-1-31,47.6,34.0,24.2,24.7,19.6,12.8,82,58,28,30.14,29.93,10,2,13,0.00
2013-2-1,51.3,35.9,22.7,26.0,18.5,12.4,84,53,27,30.19,30.04,9,3,16,0.00
2013-2-2,59.9,40.0,21.9,23.8,16.8,6.8,78,44,12,30.29,30.15,7,2,7,0.00
2013-2-3,47.4,36.9,25.1,17.9,12.7,3.6,57,38,21,30.24,29.83,4,1,6,0.00
2013-2-4,56.6,41.5,29.7,14.4,9.4,2.7,40,28,13,29.94,29.75,6,2,7,0.00
2013-2-5,56.2,43.6,28.3,21.0,16.7,12.3,52,35,22,29.97,29.74,6,1,8,0.00
2013-2-6,53.0,41.5,31.9,33.3,23.7,19.1,89,52,28,30.00,29.70,6,1,8,0.00
2013-2-7,48.3,36.1,23.6,29.3,17.0,2.8,90,51,23,30.12,30.00,5,1,6,0.00
2013-2-8,52.0,34.8,20.0,9.7,3.3,-1.0,47,28,12,30.01,29.70,4,1,7,0.00
2013-2-9,40.0,30.3,21.4,28.0,17.7,4.1,89,62,32,29.71,29.52,3,1,6,0.00
2013-2-10,36.0,28.4,19.4,23.1,13.7,4.0,90,58,26,30.12,29.60,6,2,12,0.00
2013-2-11,27.4,21.2,15.7,18.0,14.8,10.2,88,77,63,30.19,30.07,3,1,4,0.00
2013-2-12,43.1,26.2,9.3,12.3,3.8,-5.4,84,46,13,30.22,30.11,4,1,5,0.01
2013-2-13,49.0,32.1,17.4,14.6,10.0,5.2,63,42,20,30.14,29.94,8,2,14,0.00
2013-2-14,35.6,25.4,17.8,22.5,17.2,11.8,86,72,46,30.38,30.03,6,1,7,0.00
2013-2-15,44.5,28.7,15.5,21.3,11.6,-0.6,84,56,15,30.44,30.28,10,2,18,0.01
2013-2-16,58.1,42.0,20.6,18.9,11.6,6.6,74,32,14,30.29,29.89,12,3,14,0.00
2013-2-17,60.7,45.3,31.0,17.2,3.1,-12.6,48,21,5,29.89,29.43,12,4,19,0.00
2013-2-18,43.7,31.9,21.9,18.9,9.9,0.2,75,43,17,30.10,29.61,5,2,7,0.00
2013-2-19,42.0,28.6,18.1,14.3,8.4,3.8,57,43,25,30.11,29.85,3,1,5,0.00
2013-2-20,37.8,25.8,18.2,24.5,16.5,11.5,89,69,42,29.86,29.68,5,1,7,0.00
2013-2-21,28.8,20.8,14.2,20.8,16.6,11.0,90,84,71,30.02,29.79,3,1,6,0.00
2013-2-22,34.1,23.1,12.3,20.5,15.8,9.1,90,75,55,30.10,29.95,5,1,9,0.07
2013-2-23,42.6,27.0,13.2,24.9,16.4,8.6,84,66,41,29.95,29.70,4,1,5,0.05
2013-2-24,30.5,27.5,21.2,26.2,23.1,14.5,91,83,73,30.16,29.78,4,1,6,0.00
2013-2-25,34.7,23.6,9.7,20.6,14.7,5.1,85,69,51,30.19,29.94,4,1,10,0.00
2013-2-26,34.5,27.9,18.5,27.3,18.7,12.0,90,70,44,30.22,29.91,5,1,8,0.00
2013-2-27,35.7,25.6,14.2,15.3,11.3,6.8,75,56,33,30.33,30.22,5,2,8,0.02
2013-2-28,41.8,29.1,14.4,15.9,9.9,4.2,70,47,26,30.38,30.25,6,1,12,0.01
2013-3-1,43.4,34.2,21.1,24.0,18.6,8.6,74,54,34,30.34,30.25,5,2,7,0.00
2013-3-2,58.4,43.8,28.1,31.2,26.2,21.5,77,52,32,30.32,29.94,3,1,5,0.00
2013-3-3,60.9,48.7,37.3,30.3,24.5,17.8,60,41,20,29.94,29.47,17,6,28,0.00
2013-3-4,48.3,30.7,18.6,28.2,22.6,13.7,87,73,42,30.24,29.48,12,3,15,0.02
2013-3-5,39.3,25.3,10.9,20.0,14.4,6.9,88,66,33,30.41,30.24,4,1,7,0.07
2013-3-6,55.0,37.7,20.8,29.0,23.7,16.2,84,60,31,30.25,29.83,5,2,7,0.00
2013-3-7,63.2,47.5,35.3,31.8,24.9,19.3,66,43,19,29.89,29.76,5,2,10,0.00
2013-3-8,49.0,37.5,29.1,32.6,28.3,22.1,86,70,51,29.84,29.62,3,1,6,0.00
2013-3-9,37.2,33.3,28.0,33.7,27.1,13.2,94,79,49,30.11,29.59,4,1,7,0.13
2013-3-10,48.1,32.8,18.2,24.0,17.2,11.0,78,55,31,30.19,30.03,4,1,6,0.16
2013-3-11,56.0,41.0,28.8,29.4,22.4,16.3,93,53,23,30.08,29.76,12,3,15,0.01
2013-3-12,34.8,29.1,24.8,28.6,24.8,20.9,94,84,71,30.32,30.08,3,1,5,0.03
2013-3-13,62.2,44.3,27.5,37.7,29.2,22.3,91,60,24,30.33,30.15,6,2,10,0.04
2013-3-14,71.5,54.8,40.2,28.9,25.2,11.3,58,35,10,30.17,29.92,5,2,9,0.00
2013-3-15,76.6,61.4,46.6,27.7,22.8,16.6,44,25,11,29.91,29.57,6,2,12,0.00
2013-3-16,56.4,46.2,37.8,33.2,30.4,26.3,71,55,32,29.79,29.61,4,1,6,0.00
2013-3-17,56.1,42.9,30.3,34.5,21.9,3.3,77,46,20,29.73,29.41,12,4,19,0.00
2013-3-18,50.5,39.8,31.5,18.5,8.3,-3.2,48,28,16,29.86,29.73,12,5,16,0.00
2013-3-19,56.4,43.0,27.1,17.4,-4.7,-33.6,66,19,2,30.27,29.86,12,4,18,0.00
2013-3-20,49.2,33.6,19.4,23.0,17.0,-99.9,79,55,31,30.26,29.74,5,1,15,0.00
2013-3-21,58.5,42.8,28.9,38.2,20.7,0.0,78,44,16,29.74,29.42,8,2,11,0.03
2013-3-22,42.9,32.0,24.4,29.0,18.8,9.2,92,61,37,29.95,29.67,6,1,12,0.00
2013-3-23,26.2,21.4,13.4,23.4,17.2,8.4,90,84,72,30.32,29.94,1,0,1,0.00
2013-3-24,28.9,21.7,5.7,17.7,12.3,0.9,87,68,53,30.39,30.27,0,0,0,0.08
2013-3-25,33.9,23.4,11.1,17.4,13.4,7.5,89,67,39,30.41,30.32,2,0,4,0.00
2013-3-26,47.7,33.6,19.5,28.8,20.4,10.6,77,59,44,30.33,29.96,4,1,6,0.04
2013-3-27,54.1,41.1,28.6,35.6,29.9,24.7,86,66,40,30.06,29.97,4,1,6,0.00
2013-3-28,61.8,47.3,31.2,35.4,30.1,26.9,87,56,28,30.04,29.94,5,1,8,0.00
2013-3-29,63.8,51.4,39.3,33.9,30.2,28.0,69,46,27,30.00,29.85,10,3,14,0.00
2013-3-30,68.5,49.1,36.0,37.5,30.8,19.9,83,54,16,30.06,29.83,12,2,14,0.00
2013-3-31,70.3,51.0,33.1,35.3,29.1,21.6,91,50,16,30.06,29.77,5,2,7,0.00
2013-4-1,52.9,41.3,29.6,35.7,30.5,25.1,84,67,45,30.02,29.88,4,2,7,0.04
2013-4-2,40.5,37.8,36.2,36.1,34.1,31.9,94,86,76,30.10,29.99,3,1,5,0.37
2013-4-3,61.0,46.8,35.5,41.6,35.2,28.9,96,69,36,30.11,29.94,5,1,10,0.00
2013-4-4,69.4,54.3,35.6,36.7,31.2,24.5,82,45,21,30.02,29.79,5,2,8,0.00
2013-4-5,74.1,57.5,45.8,38.8,28.7,21.9,68,37,15,29.78,29.42,17,3,28,0.00
2013-4-6,66.2,52.5,35.3,31.3,25.6,19.5,62,37,19,29.73,29.60,6,2,9,0.00
2013-4-7,64.2,52.6,38.3,35.8,29.8,21.3,79,45,20,29.67,29.43,11,3,18,0.00
2013-4-8,61.9,47.6,30.0,34.6,30.8,26.2,91,55,31,29.64,29.21,5,2,11,0.02
2013-4-9,30.0,20.5,12.8,26.6,15.7,9.2,87,81,74,30.32,29.64,5,2,7,0.00
2013-4-10,26.8,18.3,5.0,19.6,12.6,1.7,89,78,63,30.34,30.07,4,1,5,0.00
2013-4-11,55.6,37.3,19.5,35.0,26.5,16.3,90,69,35,30.07,29.81,5,1,8,0.07
2013-4-12,55.5,43.0,35.7,33.8,30.9,28.9,80,63,37,29.89,29.76,8,2,10,0.00
2013-4-13,65.0,48.5,30.9,37.8,28.6,17.7,90,54,17,29.86,29.25,11,3,18,0.04
2013-4-14,47.8,42.4,35.1,38.5,14.8,-0.7,86,36,14,29.63,29.33,12,6,19,0.07
2013-4-15,39.2,28.5,22.6,27.3,23.1,13.0,92,82,34,30.08,29.62,7,1,8,0.03
2013-4-16,37.6,28.3,22.3,29.2,24.4,20.2,93,85,65,30.08,29.93,0,0,0,0.06
2013-4-17,31.4,26.8,18.4,27.5,22.7,15.7,91,85,74,30.24,29.97,0,0,0,0.00
2013-4-18,33.2,24.0,10.4,19.8,14.7,6.8,90,69,44,30.28,30.20,0,0,0,0.20
2013-4-19,52.3,36.4,19.7,29.8,21.9,15.1,84,59,32,30.25,29.95,4,1,6,0.01
2013-4-20,55.0,44.1,31.1,36.6,30.8,25.3,84,62,34,29.95,29.81,4,1,6,0.00
2013-4-21,64.0,48.1,32.0,35.0,28.3,19.3,86,52,19,29.97,29.84,10,2,12,0.00
2013-4-22,49.7,34.3,22.4,37.3,27.6,19.9,92,78,43,30.29,29.75,8,2,11,0.00
2013-4-23,31.8,25.4,19.6,20.3,18.3,14.7,91,75,53,30.35,30.24,4,1,6,0.27
2013-4-24,55.9,38.8,23.2,27.5,20.3,10.3,79,51,17,30.29,30.14,5,2,9,0.12
2013-4-25,59.1,46.0,29.6,31.4,22.8,14.4,63,42,22,30.15,29.82,4,1,7,0.00
2013-4-26,67.7,55.3,38.4,28.4,21.0,12.7,56,29,15,30.04,29.92,5,2,8,0.00
2013-4-27,75.9,62.0,40.0,28.3,19.0,9.9,51,21,9,30.02,29.76,6,2,11,0.00
2013-4-28,78.2,65.4,48.7,32.1,24.4,18.6,39,22,13,29.77,29.51,10,3,14,0.00
2013-4-29,80.6,66.2,45.5,37.9,27.8,15.9,66,28,10,29.62,29.24,8,3,13,0.00
2013-4-30,61.6,49.8,34.1,41.3,34.5,25.7,92,59,26,29.85,29.29,6,2,11,0.38
2013-5-1,34.1,30.7,25.0,32.5,27.8,22.2,95,89,79,30.68,29.85,1,0,2,0.11
2013-5-2,43.2,33.8,23.1,27.0,21.8,14.7,90,64,33,30.78,30.47,3,1,5,0.38
2013-5-3,57.7,42.9,28.7,34.1,27.5,22.7,83,57,28,30.47,30.01,4,1,5,0.01
2013-5-4,58.0,48.5,35.0,35.1,29.3,24.1,75,49,34,30.11,29.98,4,2,8,0.00
2013-5-5,58.3,47.6,34.1,36.9,28.1,21.7,72,48,29,30.11,29.95,5,2,9,0.00
2013-5-6,64.8,54.1,39.1,39.6,34.5,30.6,83,51,28,29.96,29.72,4,1,7,0.00
2013-5-7,70.9,53.7,43.3,50.6,38.9,31.2,91,60,30,29.82,29.65,7,2,11,0.95
2013-5-8,62.9,50.3,42.6,45.4,41.5,35.4,90,73,40,29.95,29.76,6,1,9,0.54
2013-5-9,59.4,50.3,45.6,46.6,42.5,38.4,88,75,55,30.05,29.93,5,2,9,0.20
2013-5-10,66.9,52.7,41.0,44.1,37.4,34.1,80,58,32,30.15,30.01,5,2,7,0.00
2013-5-11,65.8,55.3,42.9,49.8,39.5,34.2,76,56,37,30.22,30.02,6,2,7,0.00
2013-5-12,77.4,65.0,46.8,44.0,36.9,33.5,72,38,21,30.04,29.80,8,2,14,0.00
2013-5-13,83.8,72.9,57.4,45.4,38.1,33.0,47,29,18,29.84,29.65,5,2,9,0.00
2013-5-14,85.9,72.3,55.8,44.7,37.6,31.2,56,30,16,29.65,29.51,11,3,12,0.00
2013-5-15,81.0,67.6,56.9,50.2,41.0,32.5,75,40,20,29.64,29.50,8,2,10,0.00
2013-5-16,82.0,66.5,54.1,51.0,42.5,32.9,76,45,17,29.60,29.46,12,2,14,0.00
2013-5-17,85.9,70.3,52.9,47.9,35.7,17.5,61,32,10,29.57,29.36,8,2,10,0.00
2013-5-18,74.0,66.0,55.4,41.3,30.8,16.8,51,28,13,29.52,29.39,13,4,18,0.00
2013-5-19,73.2,59.6,46.0,37.6,31.2,25.1,64,37,19,29.58,29.45,9,2,14,0.00
2013-5-20,66.3,56.3,48.4,45.9,39.1,29.0,84,54,31,29.79,29.58,5,2,6,0.02
2013-5-21,72.9,56.6,39.6,39.3,33.3,24.9,79,46,17,29.85,29.63,7,2,14,0.00
2013-5-22,75.0,58.9,43.2,49.7,38.9,32.4,79,50,26,29.83,29.62,7,2,9,0.06
2013-5-23,67.4,56.6,47.4,50.2,46.7,44.4,91,71,52,29.86,29.70,4,2,6,0.00
2013-5-24,82.2,63.3,44.5,52.4,43.8,34.3,92,55,19,29.77,29.62,4,1,7,0.00
2013-5-25,85.7,70.9,53.8,53.0,40.4,26.0,61,36,12,29.70,29.47,4,2,7,0.00
2013-5-26,84.4,70.1,53.8,47.8,32.1,18.0,51,27,9,29.57,29.48,8,2,12,0.00
2013-5-27,85.2,68.6,49.7,41.3,29.6,19.0,47,26,9,29.53,29.35,6,2,12,0.00
2013-5-28,79.6,65.0,49.1,47.3,36.3,25.4,59,36,17,29.50,29.22,6,2,10,0.00
2013-5-29,65.7,55.4,47.7,49.9,43.4,33.1,92,66,38,29.48,29.28,9,1,9,0.19
2013-5-30,70.6,58.1,42.6,38.6,30.4,19.7,72,39,16,29.62,29.44,13,3,17,0.00
2013-5-31,73.5,60.1,42.4,31.8,23.4,15.6,60,28,11,29.76,29.59,9,3,15,0.00
2013-6-1,71.2,58.5,47.7,41.7,36.5,21.7,63,45,30,29.99,29.76,4,1,7,0.00
2013-6-2,81.5,63.5,44.5,42.7,35.9,30.8,68,39,19,29.98,29.53,4,2,8,0.00
2013-6-3,90.7,72.3,50.0,46.4,32.2,25.5,53,25,10,29.55,29.36,15,3,21,0.00
2013-6-4,71.1,60.3,49.5,55.7,43.8,29.4,80,56,28,29.95,29.54,5,1,7,0.02
2013-6-5,60.3,51.8,45.4,48.1,44.1,41.3,89,75,61,30.00,29.92,3,1,7,0.00
2013-6-6,79.9,62.5,42.9,50.1,42.2,38.1,94,53,23,29.97,29.78,4,1,6,0.00
2013-6-7,82.2,66.7,54.0,54.4,43.3,37.9,68,44,28,29.85,29.46,4,1,7,0.02
2013-6-8,78.6,66.0,54.8,51.4,44.4,37.8,63,47,33,29.73,29.43,7,2,10,0.00
2013-6-9,86.4,70.7,52.0,49.4,41.3,32.9,65,38,18,29.75,29.57,5,2,8,0.00
2013-6-10,99.6,79.3,56.8,54.8,38.1,25.9,49,26,8,29.58,29.40,8,2,11,0.00
2013-6-11,96.5,80.7,58.3,49.8,28.9,13.7,47,19,5,29.51,29.32,10,3,16,0.00
2013-6-12,91.1,75.8,55.3,53.0,35.2,25.0,54,25,13,29.71,29.52,5,2,8,0.00
2013-6-13,85.6,68.5,55.8,57.4,53.0,48.3,87,60,30,29.72,29.50,5,1,8,0.00
2013-6-14,91.1,74.5,56.5,52.4,42.2,18.1,63,35,7,29.62,29.47,6,2,12,0.00
2013-6-15,81.6,70.3,55.5,52.4,47.9,43.8,67,46,32,29.71,29.58,4,2,7,0.00
2013-6-16,80.2,68.7,55.3,56.5,48.3,34.9,76,51,23,29.81,29.68,9,2,45,0.00
2013-6-17,80.1,67.7,51.7,59.5,46.4,36.4,71,47,32,29.84,29.68,5,1,45,0.00
2013-6-18,83.9,67.8,53.0,54.9,50.8,44.3,85,57,26,29.81,29.53,5,2,9,0.01
2013-6-19,92.7,73.1,50.0,55.0,39.2,3.9,88,41,5,29.67,29.30,4,1,7,0.00
2013-6-20,87.5,74.7,52.7,47.2,30.3,10.5,44,21,8,29.52,29.38,5,2,12,0.00
2013-6-21,91.6,76.7,57.6,55.3,39.8,15.2,53,30,7,29.55,29.35,7,2,8,0.00
2013-6-22,87.8,71.2,54.6,52.4,43.1,21.1,65,41,9,29.58,29.34,6,2,8,0.00
2013-6-23,81.6,67.5,51.1,52.3,45.1,37.3,69,46,28,29.70,29.46,5,2,7,0.00
2013-6-24,91.7,75.3,56.9,52.2,37.4,17.8,62,30,7,29.60,29.35,10,2,13,0.00
2013-6-25,92.4,78.3,59.2,43.5,34.0,24.3,36,21,14,29.59,29.40,9,2,13,0.00
2013-6-26,99.4,81.5,64.3,46.3,37.8,27.3,38,22,8,29.67,29.55,5,2,8,0.00
2013-6-27,96.2,84.1,64.9,48.9,40.3,33.5,42,23,12,29.77,29.63,5,2,9,0.00
2013-6-28,92.0,78.0,61.7,64.0,54.1,42.4,91,48,28,29.84,29.66,8,2,8,0.68
2013-6-29,84.2,72.6,58.1,60.6,56.4,51.2,87,59,38,29.83,29.71,3,1,5,0.00
2013-6-30,80.8,69.3,63.0,62.0,55.9,53.3,80,63,40,29.85,29.77,3,1,5,0.00
2013-7-1,80.3,69.3,56.3,58.8,53.2,48.2,80,58,38,29.95,29.84,4,2,6,0.02
2013-7-2,83.0,69.8,53.7,58.1,51.1,46.8,84,54,29,29.92,29.76,5,2,8,0.00
2013-7-3,87.7,73.6,60.9,53.0,47.5,42.6,55,41,25,29.79,29.52,6,2,9,0.00
2013-7-4,90.4,77.0,59.0,55.7,47.5,43.1,66,37,23,29.60,29.47,7,2,9,0.00
2013-7-5,86.5,73.9,66.4,55.8,51.7,45.5,61,46,34,29.51,29.41,5,1,9,0.00
2013-7-6,94.2,76.9,60.6,58.2,51.0,43.5,83,43,19,29.59,29.46,12,3,14,0.08
2013-7-7,88.5,74.7,63.3,65.1,55.3,47.6,83,52,31,29.65,29.55,9,2,16,0.18
2013-7-8,89.0,75.3,62.1,66.7,52.6,41.7,80,49,22,29.72,29.60,10,2,11,0.21
2013-7-9,95.5,80.0,65.5,55.5,46.3,38.6,53,32,16,29.79,29.67,5,1,8,0.00
2013-7-10,90.3,75.8,59.7,59.8,53.0,44.5,64,46,27,29.82,29.58,3,1,7,0.00
2013-7-11,98.2,79.4,58.4,60.3,53.3,44.6,80,45,17,29.70,29.40,6,2,15,0.00
2013-7-12,88.6,77.8,67.1,60.9,51.9,47.0,77,42,29,29.56,29.46,11,2,14,0.05
2013-7-13,90.3,74.5,63.7,61.7,58.7,54.2,82,61,34,29.81,29.64,6,2,9,0.03
2013-7-14,83.9,71.7,62.7,62.5,58.0,50.9,83,63,40,29.86,29.72,6,1,12,0.00
2013-7-15,81.7,69.3,60.1,63.7,60.8,56.5,91,76,49,29.83,29.72,0,0,0,0.08
2013-7-16,83.8,69.9,53.2,56.5,51.7,43.4,93,57,26,29.87,29.77,0,0,0,0.01
2013-7-17,88.8,73.7,54.9,59.2,52.4,46.9,81,50,24,29.87,29.69,0,0,0,0.00
2013-7-18,92.5,72.5,60.8,61.2,55.3,50.3,83,58,27,29.79,29.64,6,1,7,0.33
2013-7-19,82.9,72.5,61.1,60.7,57.7,54.1,88,61,39,29.82,29.69,5,2,8,0.00
2013-7-20,85.6,72.7,64.0,64.6,53.9,45.9,79,53,33,29.71,29.55,7,0,11,0.01
2013-7-21,87.1,73.6,56.7,61.2,54.4,38.8,82,53,27,29.62,29.50,0,0,0,0.00
2013-7-22,91.9,78.7,57.5,61.2,47.5,27.1,56,35,16,29.62,29.48,6,1,9,0.00
2013-7-23,89.2,78.3,64.8,57.5,44.8,19.8,69,34,13,29.73,29.52,4,2,6,0.00
2013-7-24,84.7,71.6,61.8,65.8,56.2,50.0,77,59,40,29.85,29.63,3,1,9,0.05
2013-7-25,76.6,66.4,58.5,60.4,54.9,50.5,86,68,45,29.94,29.71,0,0,0,0.03
2013-7-26,88.4,72.5,58.4,56.8,50.0,43.0,76,48,23,29.96,29.75,6,1,8,0.00
2013-7-27,77.8,66.3,53.5,59.5,52.9,45.4,86,63,46,29.80,29.68,5,1,7,0.00
2013-7-28,71.2,63.1,59.1,63.4,58.1,56.1,91,84,66,29.77,29.62,3,0,5,0.07
2013-7-29,74.5,64.2,57.1,62.1,56.0,49.9,92,76,45,29.90,29.65,0,0,0,0.09
2013-7-30,86.3,72.3,59.0,57.6,52.6,49.1,79,52,30,29.93,29.79,4,0,6,0.00
2013-7-31,90.8,72.3,55.9,64.0,53.0,45.4,80,54,24,29.96,29.75,7,1,9,0.12
2013-8-1,87.5,72.4,57.7,61.2,54.2,47.9,82,55,30,29.85,29.60,4,1,7,0.03
2013-8-2,93.8,76.1,58.4,58.5,52.3,46.8,75,47,21,29.65,29.55,0,0,0,0.00
2013-8-3,90.7,71.2,61.1,66.4,56.4,47.8,91,63,23,29.89,29.61,7,1,9,0.48
2013-8-4,90.2,72.6,54.8,60.7,53.4,44.3,89,55,22,29.84,29.70,4,1,7,0.00
2013-8-5,86.0,71.4,59.4,59.5,51.7,44.8,71,52,27,29.71,29.64,5,1,9,0.00
2013-8-6,86.8,71.3,55.7,56.4,49.0,42.0,76,48,25,29.68,29.62,9,1,12,0.00
2013-8-7,74.0,66.5,59.5,56.4,51.8,43.4,77,60,42,29.75,29.67,3,0,5,0.00
2013-8-8,75.8,64.1,53.3,59.6,53.1,45.7,88,69,38,29.89,29.70,0,0,0,0.02
2013-8-9,77.7,65.2,53.1,54.6,50.6,45.4,86,61,38,29.91,29.84,0,0,0,0.00
2013-8-10,88.1,67.7,54.3,55.9,46.9,43.3,75,50,24,29.94,29.75,0,0,0,0.09
2013-8-11,82.6,71.3,58.7,53.2,48.9,44.7,69,46,30,29.84,29.74,0,0,0,0.00
2013-8-12,80.7,68.0,56.4,59.4,52.1,47.3,88,58,37,29.95,29.76,4,0,5,0.50
2013-8-13,77.7,66.7,52.7,57.0,50.0,46.6,84,56,37,29.93,29.82,8,1,11,0.01
2013-8-14,82.6,67.3,50.6,56.1,48.7,42.3,86,53,30,29.93,29.75,5,1,8,0.01
2013-8-15,82.1,68.6,52.8,55.8,46.4,36.3,68,47,26,29.86,29.76,4,1,8,0.00
2013-8-16,90.0,75.7,59.8,52.6,45.3,37.2,54,35,16,29.85,29.70,0,0,0,0.00
2013-8-17,94.4,77.6,58.5,52.1,42.1,29.2,62,31,11,29.77,29.59,3,0,5,0.00
2013-8-18,90.9,75.4,56.8,55.2,43.9,33.3,58,34,15,29.74,29.63,6,1,11,0.00
2013-8-19,94.4,78.7,58.4,53.3,44.7,39.1,60,32,16,29.72,29.58,4,1,5,0.00
2013-8-20,97.5,81.5,62.9,52.3,41.9,32.5,46,26,11,29.62,29.49,4,2,8,0.00
2013-8-21,90.0,78.2,67.3,53.1,48.1,41.0,52,35,24,29.72,29.58,5,1,8,0.00
2013-8-22,81.4,72.1,61.5,60.8,54.6,51.0,80,55,40,29.83,29.72,4,1,11,0.06
2013-8-23,84.2,71.4,57.5,60.8,55.5,46.7,90,61,33,29.82,29.58,11,0,18,0.02
2013-8-24,85.4,73.5,62.9,59.5,51.9,47.1,71,48,30,29.73,29.61,6,1,12,0.03
2013-8-25,90.1,76.0,65.9,56.0,51.1,46.6,58,43,24,29.75,29.66,8,0,10,0.00
2013-8-26,90.1,75.5,62.1,65.3,54.8,51.3,81,50,30,29.75,29.67,7,1,13,0.16
2013-8-27,90.4,78.8,65.0,60.1,55.4,51.7,80,46,30,29.75,29.61,5,1,6,0.00
2013-8-28,92.1,80.6,69.8,58.0,51.0,44.7,53,37,24,29.68,29.59,7,0,9,0.00
2013-8-29,95.2,81.3,65.2,55.0,47.9,43.8,52,32,19,29.73,29.65,7,2,9,0.00
2013-8-30,89.5,77.8,66.8,56.4,50.1,45.5,54,39,26,29.76,29.65,4,1,8,0.00
2013-8-31,91.9,74.9,63.3,60.1,50.4,45.2,71,43,23,29.75,29.62,7,2,13,0.04
2013-9-1,77.4,70.1,61.3,59.3,55.3,47.6,76,60,43,29.83,29.72,4,1,6,0.00
2013-9-2,90.3,74.7,56.8,60.8,53.5,47.2,82,50,29,29.81,29.62,3,0,6,0.00
2013-9-3,93.8,79.4,61.5,62.7,52.4,47.7,70,41,23,29.71,29.59,0,0,0,0.02
2013-9-4,91.8,77.8,68.8,59.0,52.4,49.7,58,42,25,29.77,29.67,0,0,0,0.00
2013-9-5,92.0,77.3,62.4,55.9,52.0,48.7,65,43,25,29.80,29.69,0,0,0,0.00
2013-9-6,95.5,81.2,67.7,56.4,48.8,42.9,52,33,20,29.73,29.58,9,1,15,0.00
2013-9-7,92.6,80.1,67.4,53.5,48.6,45.1,48,34,22,29.68,29.55,4,1,7,0.00
2013-9-8,88.0,76.8,67.2,51.1,47.6,42.3,45,36,24,29.60,29.43,0,0,0,0.00
2013-9-9,82.9,67.3,57.6,61.5,54.3,47.8,93,66,35,29.72,29.48,0,0,0,0.94
2013-9-10,67.3,60.6,58.2,61.4,57.7,56.0,94,90,75,29.94,29.70,0,0,0,0.41
2013-9-11,63.5,60.8,58.8,61.1,59.0,57.3,95,94,90,29.97,29.91,0,0,0,3.16
2013-9-12,60.8,59.5,58.7,59.4,58.1,57.0,96,95,94,30.01,29.96,0,0,0,1.36
2013-11-4,39.9,33.3,28.8,20.4,18.9,17.8,70,56,41,29.94,29.90,2,0,8,0.00
2013-11-5,45.1,34.1,23.9,24.8,16.6,0.4,76,52,20,30.17,29.92,4,1,8,0.00
2013-11-6,53.8,39.5,26.2,19.8,15.2,6.4,59,38,25,30.33,30.16,6,2,6,0.00
2013-11-7,55.0,41.4,29.4,28.0,24.0,19.1,68,51,33,30.38,29.94,4,1,6,0.00
2013-11-8,66.1,55.8,37.4,24.5,20.0,12.0,58,27,16,29.95,29.65,23,6,43,0.00
2013-11-9,58.9,47.8,36.2,33.6,27.9,19.4,75,48,24,30.13,29.80,12,2,14,0.00
2013-11-10,64.9,48.6,33.3,34.3,28.8,22.9,80,50,26,30.19,30.05,4,1,7,0.00
2013-11-11,64.9,43.3,31.1,32.9,26.5,19.3,84,56,18,30.59,30.09,6,2,9,0.00
2013-11-12,55.8,42.4,31.1,35.8,29.8,24.8,86,62,44,30.59,30.35,3,1,6,0.00
2013-11-13,65.8,50.9,34.2,27.2,20.1,15.5,64,32,15,30.35,29.89,4,1,5,0.00
2013-11-14,56.0,47.6,37.8,35.1,29.2,20.2,69,50,26,29.93,29.63,6,2,10,0.00
2013-11-15,61.9,48.8,34.6,32.4,21.9,14.7,61,38,16,29.63,29.34,14,5,21,0.00
2013-11-16,55.9,44.8,37.1,31.1,23.1,15.2,69,44,25,29.45,29.17,20,4,28,0.00
2013-11-17,56.0,41.4,30.7,30.4,20.2,13.2,87,47,19,30.03,29.44,20,4,25,0.00
2013-11-18,62.7,42.6,26.0,26.2,19.1,11.1,73,43,13,30.16,29.98,4,1,7,0.00
2013-11-19,58.9,48.6,35.5,30.1,21.5,11.3,54,35,18,29.97,29.60,11,2,16,0.00
2013-11-20,56.6,46.9,32.4,31.1,26.6,22.4,71,46,29,29.91,29.62,5,1,12,0.00
2013-11-21,31.8,16.9,13.6,24.2,12.5,-99.9,89,84,72,30.78,29.91,3,-3,9,0.00
2013-11-22,33.7,24.9,15.2,23.5,17.7,12.0,90,75,51,30.80,30.66,2,0,3,0.00
2013-11-23,34.1,28.3,23.2,23.5,20.3,11.6,89,73,49,30.72,30.39,3,1,5,0.03
2013-11-24,40.8,29.3,21.6,28.8,23.9,18.6,90,81,42,30.39,30.04,3,1,4,0.00
2013-11-25,43.7,35.3,28.3,27.5,23.7,13.5,83,64,29,30.32,30.09,3,1,6,0.02
2013-11-26,49.3,36.5,25.8,24.7,22.1,20.1,83,58,33,30.42,30.24,4,1,7,0.06
2013-11-27,62.1,42.3,25.8,27.3,22.1,19.1,77,49,21,30.24,29.98,4,1,9,0.00
2013-11-28,46.2,35.6,27.4,28.8,25.0,21.0,83,66,49,30.15,30.07,3,1,5,0.00
2013-11-29,61.9,46.5,30.3,27.4,22.1,17.8,82,43,19,30.13,30.02,8,2,11,0.00
2013-11-30,57.7,44.0,33.7,25.9,19.9,16.2,57,39,22,30.07,29.98,4,1,6,0.00
2013-12-1,55.0,44.9,32.5,25.5,21.3,16.9,59,40,26,30.07,29.73,12,2,18,0.00
2013-12-2,54.6,50.5,47.1,25.9,24.0,21.5,42,35,30,29.74,29.32,21,9,30,0.00
2013-12-3,54.0,35.2,10.5,31.1,19.1,6.1,85,57,30,29.72,29.28,12,5,18,0.00
2013-12-4,12.1,7.4,1.0,6.1,2.6,-3.5,85,80,70,30.37,29.72,3,0,4,0.00
2013-12-5,10.9,2.7,-9.1,0.5,-3.7,-13.4,86,75,56,30.47,30.33,4,1,6,0.00
2013-12-6,8.3,2.4,-1.9,-0.8,-3.7,-6.8,82,75,62,30.58,30.47,4,1,7,0.00
2013-12-7,9.0,2.5,-2.9,1.6,-2.6,-7.4,83,79,68,30.57,30.14,3,1,5,0.00
2013-12-8,17.4,7.3,-2.4,8.3,1.9,-6.8,86,78,65,30.35,30.07,3,1,5,0.00
2013-12-9,24.6,12.6,-0.1,5.0,0.1,-5.3,82,59,36,30.39,30.27,11,3,15,0.00
2013-12-10,41.5,29.2,14.6,14.8,9.8,1.6,65,45,30,30.36,29.94,23,8,36,0.03
2013-12-11,27.4,20.2,10.0,18.9,13.5,6.4,87,75,60,30.48,30.31,5,1,6,0.00
2013-12-12,54.2,32.8,20.1,22.6,14.6,9.0,68,49,19,30.48,29.98,3,1,3,0.00
2013-12-13,48.0,34.4,23.9,22.1,16.8,10.5,70,51,24,30.16,29.84,4,1,7,0.00
2013-12-14,45.9,32.1,20.9,22.0,17.1,13.6,80,56,28,30.29,30.15,5,1,9,0.00
2013-12-15,57.3,45.7,29.3,20.2,16.9,13.0,59,33,21,30.19,29.97,16,4,18,0.00
2013-12-16,60.2,50.9,36.6,19.2,14.9,9.9,42,24,16,30.08,29.87,16,6,26,0.00
2013-12-17,58.6,47.0,32.2,23.3,17.2,12.7,53,32,18,30.20,29.94,6,2,8,0.00
2013-12-18,64.4,49.5,39.8,21.8,16.8,10.2,39,28,13,29.94,29.55,7,1,9,0.00
2013-12-19,45.9,34.7,16.6,26.2,20.2,14.0,90,58,31,29.84,29.40,6,2,11,0.00
2013-12-20,24.8,19.8,16.4,21.5,17.1,14.0,92,89,84,29.86,29.77,3,1,6,0.00
2013-12-21,31.2,23.0,14.8,24.2,19.0,12.1,91,85,65,30.03,29.71,2,0,4,0.00
2013-12-22,36.8,25.9,16.8,24.4,18.2,14.3,92,74,41,30.33,30.03,7,1,8,0.06
2013-12-23,35.8,25.4,14.9,25.8,19.6,12.5,91,79,61,30.38,30.17,5,1,10,0.00
2013-12-24,49.0,40.0,21.2,31.4,17.9,5.5,66,42,22,30.23,29.97,22,7,29,0.01
2013-12-25,43.5,31.3,20.1,14.2,10.3,2.6,65,44,18,30.42,30.21,9,1,10,0.00
2013-12-26,53.7,41.8,28.9,16.9,11.7,2.3,59,32,17,30.27,30.16,9,2,11,0.00
2013-12-27,57.1,41.1,29.4,25.3,20.8,16.4,63,46,24,30.24,29.99,3,1,5,0.00
2013-12-28,57.2,37.3,21.5,26.8,21.6,17.7,87,56,26,30.19,29.77,6,2,10,0.00
2013-12-29,37.9,25.8,12.9,21.9,15.0,9.9,89,66,31,30.27,29.97,7,2,9,0.02
2013-12-30,48.1,35.0,24.5,17.5,13.9,10.5,64,44,23,30.26,30.03,5,1,7,0.00
2013-12-31,55.2,44.7,30.0,23.1,20.0,14.9,57,38,26,30.08,29.81,12,3,19,0.00
2014-1-1,43.6,33.8,20.8,29.8,23.8,17.4,88,68,42,30.27,29.77,9,2,12,0.00
2014-1-2,41.9,30.1,20.2,25.2,19.6,14.8,89,66,44,30.34,30.07,4,1,6,0.00